createdAt,value
2023-06-24T00:04:22.856Z,93.40
2023-06-24T00:09:28.560Z,93.40
2023-06-24T00:14:33.917Z,93.40
2023-06-24T00:19:38.468Z,93.30
2023-06-24T00:24:44.126Z,93.30
2023-06-24T00:29:49.738Z,93.20
2023-06-24T00:34:54.377Z,93.10
2023-06-24T00:39:58.562Z,93.10
2023-06-24T00:45:05.718Z,93.10
2023-06-24T00:50:13.239Z,93.00
2023-06-24T00:55:21.508Z,93.10
2023-06-24T01:00:27.670Z,93.10
2023-06-24T01:05:36.743Z,93.10
2023-06-24T01:10:41.009Z,93.00
2023-06-24T01:15:46.983Z,93.10
2023-06-24T01:20:58.516Z,93.10
2023-06-24T01:26:31.169Z,93.10
2023-06-24T01:31:47.338Z,93.10
2023-06-24T01:37:00.873Z,93.10
2023-06-24T01:42:10.726Z,93.10
2023-06-24T01:47:18.770Z,93.10
2023-06-24T01:52:25.218Z,93.20
2023-06-24T01:57:31.187Z,93.20
2023-06-24T02:02:38.150Z,93.30
2023-06-24T02:07:44.350Z,93.30
2023-06-24T02:12:53.166Z,93.30
2023-06-24T02:17:59.688Z,93.40
2023-06-24T02:23:10.610Z,93.40
2023-06-24T02:28:16.851Z,93.50
2023-06-24T02:33:22.583Z,93.50
2023-06-24T02:38:28.825Z,93.60
2023-06-24T02:43:33.124Z,93.70
2023-06-24T02:48:41.462Z,93.80
2023-06-24T02:53:47.871Z,93.90
2023-06-24T02:58:55.299Z,94.00
2023-06-24T03:04:05.437Z,94.10
2023-06-24T03:09:10.421Z,94.10
2023-06-24T03:14:15.237Z,94.20
2023-06-24T03:19:22.814Z,94.20
2023-06-24T03:24:27.829Z,94.30
2023-06-24T03:29:31.972Z,94.30
2023-06-24T03:34:45.183Z,94.30
2023-06-24T03:39:49.686Z,94.40
2023-06-24T03:44:54.012Z,94.40
2023-06-24T03:49:59.536Z,94.50
2023-06-24T03:55:06.117Z,94.50
2023-06-24T04:00:16.677Z,94.50
2023-06-24T04:05:25.894Z,94.50
2023-06-24T04:10:29.975Z,94.60
2023-06-24T04:15:34.360Z,94.60
2023-06-24T04:20:40.129Z,94.60
2023-06-24T04:25:44.439Z,94.60
2023-06-24T04:30:48.549Z,94.60
2023-06-24T04:35:57.628Z,94.70
2023-06-24T04:41:02.422Z,94.80
2023-06-24T04:46:06.454Z,95.10
2023-06-24T04:51:12.057Z,94.80
2023-06-24T04:56:16.138Z,94.90
2023-06-24T05:01:20.564Z,94.90
2023-06-24T05:06:26.098Z,95.00
2023-06-24T05:11:30.155Z,95.10
2023-06-24T05:16:34.239Z,95.10
2023-06-24T05:21:39.721Z,95.20
2023-06-24T05:26:43.758Z,95.20
2023-06-24T05:31:47.993Z,95.30
2023-06-24T05:36:53.460Z,95.30
2023-06-24T05:41:57.581Z,95.30
2023-06-24T05:47:01.600Z,95.30
2023-06-24T05:52:08.793Z,95.40
2023-06-24T05:57:13.499Z,95.40
2023-06-24T06:02:18.054Z,95.40
2023-06-24T06:07:23.520Z,95.50
2023-06-24T06:12:27.861Z,95.40
2023-06-24T06:17:31.897Z,95.50
2023-06-24T06:22:38.898Z,95.80
2023-06-24T06:27:43.087Z,95.50
2023-06-24T06:32:47.166Z,95.90
2023-06-24T06:37:56.671Z,95.60
2023-06-24T06:43:01.115Z,95.60
2023-06-24T06:48:08.351Z,95.70
2023-06-24T06:53:14.097Z,95.60
2023-06-24T06:58:18.302Z,95.70
2023-06-24T07:03:22.743Z,95.80
2023-06-24T07:08:28.215Z,95.90
2023-06-24T07:13:32.360Z,95.90
2023-06-24T07:18:36.437Z,96.00
2023-06-24T07:23:42.886Z,96.00
2023-06-24T07:28:53.858Z,96.10
2023-06-24T07:34:08.166Z,96.10
2023-06-24T07:39:13.638Z,96.10
2023-06-24T07:44:17.674Z,96.10
2023-06-24T07:49:21.728Z,96.10
2023-06-24T07:54:27.200Z,96.20
2023-06-24T07:59:31.173Z,96.20
2023-06-24T08:04:35.407Z,96.10
2023-06-24T08:09:40.937Z,96.10
2023-06-24T08:14:44.979Z,96.10
2023-06-24T08:19:49.041Z,96.10
2023-06-24T08:24:54.509Z,96.00
2023-06-24T08:29:58.629Z,96.00
2023-06-24T08:35:02.697Z,96.00
2023-06-24T08:40:09.960Z,95.90
2023-06-24T08:45:13.995Z,95.80
2023-06-24T08:50:20.775Z,95.70
2023-06-24T08:55:28.872Z,95.60
2023-06-24T09:00:33.149Z,95.60
2023-06-24T09:05:37.355Z,95.50
2023-06-24T09:10:43.060Z,95.50
2023-06-24T09:15:47.122Z,95.30
2023-06-24T09:20:51.179Z,95.20
2023-06-24T09:26:00.196Z,95.10
2023-06-24T09:31:18.932Z,94.80
2023-06-24T09:36:24.348Z,94.70
2023-06-24T09:41:30.546Z,94.60
2023-06-24T09:46:36.207Z,94.40
2023-06-24T09:51:42.369Z,94.30
2023-06-24T09:56:51.311Z,94.20
2023-06-24T10:01:56.310Z,94.20
2023-06-24T10:07:01.616Z,94.00
2023-06-24T10:12:08.589Z,93.90
2023-06-24T10:17:14.832Z,93.60
2023-06-24T10:22:19.068Z,93.50
2023-06-24T10:27:27.982Z,93.30
2023-06-24T10:32:43.949Z,93.10
2023-06-24T10:37:58.026Z,93.00
2023-06-24T10:43:03.569Z,92.90
2023-06-24T10:48:07.998Z,92.60
2023-06-24T10:53:12.257Z,92.50
2023-06-24T10:58:17.928Z,92.30
2023-06-24T11:03:23.112Z,92.10
2023-06-24T11:08:27.160Z,91.80
2023-06-24T11:13:35.704Z,91.80
2023-06-24T11:18:40.701Z,91.50
2023-06-24T11:23:44.748Z,91.40
2023-06-24T11:28:51.710Z,91.10
2023-06-24T11:33:55.882Z,90.80
2023-06-24T11:39:00.221Z,90.90
2023-06-24T11:44:07.663Z,90.40
2023-06-24T11:49:12.023Z,90.30
2023-06-24T11:54:20.670Z,90.10
2023-06-24T11:59:29.252Z,89.70
2023-06-24T12:04:35.007Z,89.30
2023-06-24T12:09:40.876Z,88.70
2023-06-24T12:14:46.360Z,88.50
2023-06-24T12:19:50.404Z,88.10
2023-06-24T12:24:54.383Z,87.40
2023-06-24T12:29:59.867Z,86.90
2023-06-24T12:35:04.497Z,86.60
2023-06-24T12:40:10.033Z,86.10
2023-06-24T12:45:15.796Z,85.80
2023-06-24T12:50:19.890Z,85.70
2023-06-24T12:55:24.051Z,85.30
2023-06-24T13:00:29.551Z,85.20
2023-06-24T13:05:33.652Z,84.60
2023-06-24T13:10:37.878Z,85.00
2023-06-24T13:15:44.527Z,83.70
2023-06-24T13:20:48.625Z,83.20
2023-06-24T13:25:52.756Z,82.90
2023-06-24T13:30:58.237Z,82.20
2023-06-24T13:36:03.744Z,81.90
2023-06-24T13:41:07.824Z,81.60
2023-06-24T13:46:13.544Z,80.90
2023-06-24T13:51:17.934Z,80.60
2023-06-24T13:56:22.912Z,80.10
2023-06-24T14:01:29.675Z,80.10
2023-06-24T14:06:33.864Z,79.90
2023-06-24T14:11:38.141Z,79.20
2023-06-24T14:16:43.575Z,78.70
2023-06-24T14:21:47.880Z,78.50
2023-06-24T14:26:52.174Z,78.10
2023-06-24T14:31:57.745Z,77.80
2023-06-24T14:37:01.844Z,77.20
2023-06-24T14:42:09.189Z,76.70
2023-06-24T14:47:14.972Z,76.60
2023-06-24T14:52:19.126Z,76.10
2023-06-24T14:57:24.550Z,75.90
2023-06-24T15:02:30.084Z,75.20
2023-06-24T15:07:34.284Z,75.00
2023-06-24T15:12:41.698Z,74.50
2023-06-24T15:17:47.178Z,74.20
2023-06-24T15:22:51.262Z,73.70
2023-06-24T15:27:55.391Z,73.60
2023-06-24T15:33:00.890Z,73.10
2023-06-24T15:38:04.959Z,72.70
2023-06-24T15:43:10.575Z,72.40
2023-06-24T15:48:16.456Z,72.20
2023-06-24T15:53:20.516Z,72.00
2023-06-24T15:58:24.657Z,71.60
2023-06-24T16:03:30.136Z,71.40
2023-06-24T16:08:34.268Z,71.60
2023-06-24T16:13:38.442Z,71.20
2023-06-24T16:18:43.866Z,70.90
2023-06-24T16:23:48.635Z,70.50
2023-06-24T16:28:52.759Z,70.00
2023-06-24T16:33:58.943Z,70.00
2023-06-24T16:39:03.005Z,69.80
2023-06-24T16:44:07.364Z,70.00
2023-06-24T16:49:12.829Z,70.00
2023-06-24T16:54:17.909Z,69.90
2023-06-24T16:59:22.009Z,70.00
2023-06-24T17:04:27.422Z,70.00
2023-06-24T17:09:31.738Z,70.10
2023-06-24T17:14:36.017Z,70.10
2023-06-24T17:19:42.307Z,70.00
2023-06-24T17:24:46.129Z,70.00
2023-06-24T17:29:50.583Z,70.20
2023-06-24T17:34:56.324Z,70.20
2023-06-24T17:40:00.491Z,70.40
2023-06-24T17:45:05.010Z,70.50
2023-06-24T17:50:11.180Z,70.50
2023-06-24T17:55:15.193Z,70.70
2023-06-24T18:00:19.380Z,70.80
2023-06-24T18:05:25.140Z,70.80
2023-06-24T18:10:29.476Z,71.80
2023-06-24T18:15:33.551Z,71.30
2023-06-24T18:20:39.186Z,71.40
2023-06-24T18:25:43.247Z,71.70
2023-06-24T18:30:47.306Z,71.80
2023-06-24T18:35:52.785Z,72.00
2023-06-24T18:40:56.871Z,72.10
2023-06-24T18:46:00.948Z,72.30
2023-06-24T18:51:06.405Z,72.60
2023-06-24T18:56:10.490Z,72.70
2023-06-24T19:01:14.486Z,72.80
2023-06-24T19:06:19.986Z,73.10
2023-06-24T19:11:24.683Z,73.20
2023-06-24T19:16:28.728Z,73.40
2023-06-24T19:21:34.273Z,73.50
2023-06-24T19:26:38.316Z,73.70
2023-06-24T19:31:42.455Z,73.80
2023-06-24T19:36:48.022Z,74.00
2023-06-24T19:41:52.139Z,74.10
2023-06-24T19:46:56.263Z,74.40
2023-06-24T19:52:01.780Z,74.40
2023-06-24T19:57:06.321Z,74.60
2023-06-24T20:02:10.688Z,75.00
2023-06-24T20:07:17.464Z,75.10
2023-06-24T20:12:21.991Z,75.50
2023-06-24T20:17:26.101Z,75.70
2023-06-24T20:22:31.608Z,76.10
2023-06-24T20:27:35.613Z,76.40
2023-06-24T20:32:39.639Z,76.80
2023-06-24T20:37:45.314Z,77.10
2023-06-24T20:42:49.371Z,77.50
2023-06-24T20:47:53.462Z,78.60
2023-06-24T20:52:58.904Z,78.30
2023-06-24T20:58:02.936Z,78.60
2023-06-24T21:03:08.395Z,79.10
2023-06-24T21:08:13.949Z,79.40
2023-06-24T21:13:18.054Z,79.80
2023-06-24T21:18:22.596Z,80.10
2023-06-24T21:23:28.251Z,81.10
2023-06-24T21:28:32.359Z,80.60
2023-06-24T21:33:37.671Z,80.90
2023-06-24T21:38:43.054Z,81.20
2023-06-24T21:43:47.067Z,81.40
2023-06-24T21:48:51.164Z,81.70
2023-06-24T21:53:56.628Z,81.80
2023-06-24T21:59:00.676Z,82.00
2023-06-24T22:04:04.818Z,82.10
2023-06-24T22:09:10.367Z,82.30
2023-06-24T22:14:14.445Z,82.40
2023-06-24T22:19:21.188Z,82.60
2023-06-24T22:24:26.602Z,82.80
2023-06-24T22:29:30.685Z,82.90
2023-06-24T22:34:34.806Z,83.00
2023-06-24T22:39:40.184Z,83.20
2023-06-24T22:44:44.304Z,83.40
2023-06-24T22:49:48.382Z,83.50
2023-06-24T22:54:53.885Z,83.70
2023-06-24T22:59:58.016Z,83.90
2023-06-24T23:05:03.014Z,84.20
2023-06-24T23:10:10.698Z,84.20
2023-06-24T23:15:15.841Z,84.50
2023-06-24T23:20:20.667Z,84.70
2023-06-24T23:25:30.145Z,85.00
2023-06-24T23:30:37.409Z,85.20
2023-06-24T23:35:42.521Z,85.30
2023-06-24T23:40:49.179Z,85.60
2023-06-24T23:45:53.517Z,85.80
2023-06-24T23:50:57.954Z,86.70
2023-06-24T23:56:03.292Z,86.20
